createdAt,value
2022-10-09T04:55:40.477Z,0.857143
2022-10-09T04:56:40.511Z,0.857143
2022-10-09T04:57:40.545Z,0.857143
2022-10-09T04:58:40.603Z,1.71429
2022-10-09T04:59:40.615Z,2.5
2022-10-09T05:00:40.689Z,2.5
2022-10-09T05:01:40.813Z,3.35714
2022-10-09T05:02:40.748Z,4.21429
2022-10-09T05:03:40.757Z,5.85714
2022-10-09T05:04:40.798Z,6.71429
2022-10-09T05:05:40.852Z,7.5
2022-10-09T05:06:40.864Z,9.21429
2022-10-09T05:07:40.925Z,10.8571
2022-10-09T05:08:40.931Z,13.3571
2022-10-09T05:09:40.962Z,15
2022-10-09T05:10:41.000Z,17.5
2022-10-09T05:11:42.680Z,20
2022-10-09T05:12:41.089Z,22.5
2022-10-09T05:13:41.126Z,25.8571
2022-10-09T05:14:41.127Z,29.2143
2022-10-09T05:15:41.184Z,32.5
2022-10-09T05:17:08.433Z,36.7143
2022-10-09T05:17:41.306Z,40.8571
2022-10-09T05:18:41.268Z,45
2022-10-09T05:19:41.301Z,49.2143
2022-10-09T05:20:41.344Z,54.2143
2022-10-09T05:21:41.351Z,60
2022-10-09T05:22:41.382Z,65
2022-10-09T05:23:41.419Z,70.8571
2022-10-09T05:24:41.450Z,76.7143
2022-10-09T05:25:41.510Z,82.5
2022-10-09T05:26:41.521Z,89.2143
2022-10-09T05:27:41.552Z,95.8571
2022-10-09T05:28:41.662Z,102.5
2022-10-09T05:29:41.614Z,109.214
2022-10-09T05:30:41.683Z,116.714
2022-10-09T05:31:44.678Z,124.214
2022-10-09T05:32:41.710Z,131.714
2022-10-09T05:33:41.765Z,140
2022-10-09T05:34:41.778Z,147.5
2022-10-09T05:35:41.814Z,155.857
2022-10-09T05:36:41.869Z,164.214
2022-10-09T05:37:41.881Z,171.714
2022-10-09T05:38:41.913Z,180
2022-10-09T05:39:41.972Z,187.5
2022-10-09T05:40:41.984Z,195.857
2022-10-09T05:41:42.042Z,204.214
2022-10-09T05:42:42.050Z,213.357
2022-10-09T05:43:42.086Z,220.857
2022-10-09T05:44:42.117Z,229.214
2022-10-09T05:45:42.229Z,238.357
2022-10-09T05:46:42.189Z,247.5
2022-10-09T05:47:42.229Z,255.857
2022-10-09T05:48:42.257Z,264.214
2022-10-09T05:49:42.297Z,273.357
2022-10-09T05:50:42.355Z,281.714
2022-10-09T05:51:42.364Z,290.857
2022-10-09T05:52:42.396Z,301.714
2022-10-09T05:53:42.432Z,309.214
2022-10-09T05:54:42.486Z,314.214
2022-10-09T05:55:42.504Z,321.714
2022-10-09T05:56:42.556Z,329.214
2022-10-09T05:57:42.565Z,336.714
2022-10-09T05:58:42.594Z,345
2022-10-09T05:59:42.625Z,352.5
2022-10-09T06:00:42.686Z,360
2022-10-09T06:01:42.783Z,366.714
2022-10-09T06:02:42.812Z,373.357
2022-10-09T06:03:42.797Z,379.214
2022-10-09T06:04:42.802Z,385
2022-10-09T06:05:42.844Z,390.857
2022-10-09T06:06:42.876Z,397.5
2022-10-09T06:07:42.909Z,404.214
2022-10-09T06:08:42.973Z,411.714
2022-10-09T06:09:42.992Z,420
2022-10-09T06:10:43.035Z,430.857
2022-10-09T06:11:43.050Z,442.5
2022-10-09T06:12:43.082Z,459.214
2022-10-09T06:13:43.135Z,473.357
2022-10-09T06:14:43.148Z,475
2022-10-09T06:15:43.177Z,491.714
2022-10-09T06:16:43.284Z,506.714
2022-10-09T06:17:43.237Z,504.214
2022-10-09T06:18:48.140Z,500.857
2022-10-09T06:19:43.336Z,505
2022-10-09T06:20:43.349Z,506.714
2022-10-09T06:21:43.379Z,517.5
2022-10-09T06:22:43.419Z,531.714
2022-10-09T06:23:43.455Z,542.5
2022-10-09T06:24:43.507Z,569.214
2022-10-09T06:25:43.513Z,600
2022-10-09T06:26:43.542Z,644.214
2022-10-09T06:27:43.593Z,660.857
2022-10-09T06:28:43.674Z,626.714
2022-10-09T06:29:43.644Z,634.214
2022-10-09T06:30:43.711Z,684.214
2022-10-09T06:31:43.757Z,726.714
2022-10-09T06:32:43.773Z,705
2022-10-09T06:33:43.782Z,710.857
2022-10-09T06:34:43.809Z,730
2022-10-09T06:35:43.842Z,741.714
2022-10-09T06:36:43.871Z,763.357
2022-10-09T06:37:43.900Z,805.857
2022-10-09T06:38:43.930Z,855.857
2022-10-09T06:39:43.972Z,894.214
2022-10-09T06:40:44.011Z,979.214
2022-10-09T06:41:44.042Z,1155.86
2022-10-09T06:42:44.093Z,1271.71
2022-10-09T06:43:44.097Z,1602.5
2022-10-09T06:44:44.131Z,1820.86
2022-10-09T06:45:44.188Z,1605
2022-10-09T06:46:44.212Z,1121.71
2022-10-09T06:47:44.253Z,872.5
2022-10-09T06:48:44.255Z,862.5
2022-10-09T06:49:44.294Z,881.714
2022-10-09T06:50:44.338Z,950.857
2022-10-09T06:51:44.377Z,1080
2022-10-09T06:52:44.423Z,1111.71
2022-10-09T06:53:44.441Z,1140.86
2022-10-09T06:54:44.475Z,1200
2022-10-09T06:55:44.508Z,1281.71
2022-10-09T06:56:44.551Z,1235
2022-10-09T06:57:44.595Z,1116.71
2022-10-09T06:58:44.601Z,1062.5
2022-10-09T06:59:44.633Z,1075
2022-10-09T07:00:44.685Z,1068.36
2022-10-09T07:01:44.784Z,1041.71
2022-10-09T07:02:44.769Z,1008.36
2022-10-09T07:03:44.767Z,990
2022-10-09T07:04:44.791Z,974.214
2022-10-09T07:05:44.826Z,962.5
2022-10-09T07:06:44.863Z,950.857
2022-10-09T07:07:44.898Z,940.857
2022-10-09T07:08:44.930Z,933.357
2022-10-09T07:09:44.959Z,936.714
2022-10-09T07:10:45.010Z,930.857
2022-10-09T07:11:45.030Z,919.214
2022-10-09T07:12:45.074Z,908.357
2022-10-09T07:13:45.113Z,891.714
2022-10-09T07:14:45.121Z,867.5
2022-10-09T07:15:45.216Z,854.214
2022-10-09T07:16:45.199Z,847.5
2022-10-09T07:17:45.226Z,844.214
2022-10-09T07:18:45.260Z,842.5
2022-10-09T07:19:45.289Z,862.5
2022-10-09T07:20:45.318Z,915
2022-10-09T07:21:45.382Z,951.714
2022-10-09T07:22:45.408Z,965
2022-10-09T07:23:45.431Z,891.714
2022-10-09T07:24:45.459Z,885
2022-10-09T07:25:45.482Z,835
2022-10-09T07:26:45.530Z,786.714
2022-10-09T07:27:45.550Z,763.357
2022-10-09T07:28:45.628Z,756.714
2022-10-09T07:29:45.612Z,735.857
2022-10-09T07:30:45.716Z,711.714
2022-10-09T07:31:45.702Z,693.357
2022-10-09T07:32:45.974Z,671.714
2022-10-09T07:33:45.747Z,658.357
2022-10-09T07:34:45.776Z,659.214
2022-10-09T07:35:45.816Z,660.857
2022-10-09T07:36:45.866Z,669.214
2022-10-09T07:37:45.879Z,686.714
2022-10-09T07:38:45.914Z,707.5
2022-10-09T07:39:45.939Z,734.214
2022-10-09T07:40:46.000Z,769.214
2022-10-09T07:41:46.010Z,806.714
2022-10-09T07:42:46.254Z,835
2022-10-09T07:43:46.084Z,856.714
2022-10-09T07:44:46.114Z,870
2022-10-09T07:45:46.190Z,879.214
2022-10-09T07:46:46.240Z,879.214
2022-10-09T07:47:46.205Z,872.5
2022-10-09T07:48:46.271Z,861.714
2022-10-09T07:49:46.278Z,843.357
2022-10-09T07:50:46.318Z,821.714
2022-10-09T07:51:46.360Z,800
2022-10-09T07:52:46.801Z,780.857
2022-10-09T07:53:46.445Z,760
2022-10-09T07:54:46.458Z,737.5
2022-10-09T07:55:46.487Z,723.357
2022-10-09T07:56:46.549Z,717.5
2022-10-09T07:57:46.559Z,711.714
2022-10-09T07:58:46.586Z,718.357
2022-10-09T07:59:46.613Z,732.5
2022-10-09T08:00:46.644Z,731.714
2022-10-09T08:01:46.732Z,725
2022-10-09T08:02:47.220Z,718.357
2022-10-09T08:03:46.738Z,710
2022-10-09T08:04:46.799Z,713.357
2022-10-09T08:05:46.810Z,715.857
2022-10-09T08:06:46.840Z,715.857
2022-10-09T08:07:46.871Z,724.214
2022-10-09T08:08:46.905Z,728.357
2022-10-09T08:09:46.951Z,720
2022-10-09T08:10:46.982Z,712.5
2022-10-09T08:11:47.015Z,712.5
2022-10-09T08:12:47.430Z,712.5
2022-10-09T08:13:47.091Z,710
2022-10-09T08:14:47.118Z,708.357
2022-10-09T08:15:47.245Z,703.357
2022-10-09T08:16:47.189Z,697.5
2022-10-09T08:17:47.224Z,693.357
2022-10-09T08:18:47.270Z,689.214
2022-10-09T08:19:47.291Z,699.214
2022-10-09T08:20:47.353Z,710
2022-10-09T08:21:47.384Z,712.5
2022-10-09T08:22:47.795Z,712.5
2022-10-09T08:23:47.425Z,714.214
2022-10-09T08:24:47.461Z,716.714
2022-10-09T08:25:47.514Z,721.714
2022-10-09T08:26:47.527Z,723.357
2022-10-09T08:27:47.563Z,726.714
2022-10-09T08:28:47.675Z,728.357
2022-10-09T08:29:47.638Z,730.857
2022-10-09T08:30:47.694Z,732.5
2022-10-09T08:31:47.700Z,734.214
2022-10-09T08:32:48.020Z,736.714
2022-10-09T08:33:47.789Z,740.857
2022-10-09T08:34:47.790Z,744.214
2022-10-09T08:35:47.821Z,748.357
2022-10-09T08:36:47.859Z,751.714
2022-10-09T08:37:47.880Z,763.357
2022-10-09T08:38:48.474Z,765.857
2022-10-09T08:39:47.971Z,756.714
2022-10-09T08:40:47.980Z,753.357
2022-10-09T08:41:48.012Z,750
2022-10-09T08:42:48.264Z,746.714
2022-10-09T08:43:48.100Z,747.5
2022-10-09T08:44:48.110Z,745
2022-10-09T08:45:48.147Z,739.214
2022-10-09T08:46:48.257Z,735.857
2022-10-09T08:47:48.218Z,730
2022-10-09T08:48:48.269Z,725
2022-10-09T08:49:48.282Z,719.214
2022-10-09T08:50:48.318Z,714.214
2022-10-09T08:51:48.357Z,710
2022-10-09T08:52:50.131Z,706.714
2022-10-09T08:53:48.454Z,702.5
2022-10-09T08:54:48.447Z,697.5
2022-10-09T08:55:48.478Z,690.857
2022-10-09T08:56:48.537Z,690
2022-10-09T08:57:48.556Z,687.5
2022-10-09T08:58:48.589Z,685.857
2022-10-09T08:59:48.625Z,693.357
2022-10-09T09:00:48.652Z,693.357
2022-10-09T09:01:48.735Z,690
2022-10-09T09:02:48.936Z,690.857
2022-10-09T09:03:48.746Z,690
2022-10-09T09:04:53.763Z,688.357
2022-10-09T09:05:48.816Z,686.714
2022-10-09T09:06:48.892Z,685.857
2022-10-09T09:07:48.874Z,685.857
2022-10-09T09:08:48.915Z,685.857
2022-10-09T09:09:48.941Z,687.5
2022-10-09T09:10:48.974Z,688.357
2022-10-09T09:11:49.028Z,687.5
2022-10-09T09:12:49.347Z,687.5
2022-10-09T09:13:49.069Z,687.5
2022-10-09T09:14:49.110Z,685.857
2022-10-09T09:15:49.197Z,675
2022-10-09T09:16:49.197Z,674.214
2022-10-09T09:17:49.235Z,676.714
2022-10-09T09:18:49.245Z,680.857
2022-10-09T09:19:49.270Z,682.5
2022-10-09T09:20:49.301Z,683.357
2022-10-09T09:21:49.335Z,683.357
2022-10-09T09:22:49.704Z,683.357
2022-10-09T09:23:49.387Z,682.5
2022-10-09T09:24:49.416Z,681.714
2022-10-09T09:25:49.460Z,680
2022-10-09T09:26:49.489Z,677.5
2022-10-09T09:27:49.548Z,679.214
2022-10-09T09:28:49.674Z,680
2022-10-09T09:29:49.614Z,680.857
2022-10-09T09:30:49.695Z,680.857
2022-10-09T09:31:49.703Z,679.214
2022-10-09T09:32:50.198Z,678.357
2022-10-09T09:33:49.725Z,678.357
2022-10-09T09:34:49.758Z,679.214
2022-10-09T09:35:49.794Z,685.857
2022-10-09T09:36:49.856Z,687.5
2022-10-09T09:37:49.861Z,694.214
2022-10-09T09:39:35.158Z,694.214
2022-10-09T09:40:49.971Z,693.357
2022-10-09T09:41:49.979Z,697.5
2022-10-09T09:42:50.492Z,696.714
2022-10-09T09:43:50.063Z,695.857
2022-10-09T09:44:50.077Z,689.214
2022-10-09T09:45:50.129Z,685
2022-10-09T09:46:50.175Z,691.714
2022-10-09T09:47:50.491Z,696.714
2022-10-09T09:48:50.214Z,700
2022-10-09T09:49:50.277Z,702.5
2022-10-09T09:50:59.939Z,704.214
2022-10-09T09:51:50.330Z,705.857
2022-10-09T09:52:50.354Z,707.5
2022-10-09T09:53:50.385Z,708.357
2022-10-09T09:54:50.445Z,710
2022-10-09T09:55:50.465Z,711.714
2022-10-09T09:57:13.852Z,710.857
2022-10-09T09:57:50.815Z,708.357
2022-10-09T09:58:50.563Z,711.714
2022-10-09T09:59:50.593Z,710.857
2022-10-09T10:00:50.741Z,710
2022-10-09T10:01:50.701Z,712.5
2022-10-09T10:02:51.107Z,716.714
2022-10-09T10:03:50.732Z,717.5
2022-10-09T10:04:50.769Z,718.357
2022-10-09T10:05:50.823Z,720
2022-10-09T10:06:50.826Z,720.857
2022-10-09T10:07:50.884Z,720
2022-10-09T10:08:50.896Z,717.5
2022-10-09T10:09:50.929Z,716.714
2022-10-09T10:10:50.958Z,715
2022-10-09T10:11:50.987Z,714.214
2022-10-09T10:12:51.347Z,715
2022-10-09T10:13:51.040Z,715
2022-10-09T10:14:51.102Z,717.5
2022-10-09T10:15:51.139Z,716.714
2022-10-09T10:16:51.130Z,716.714
2022-10-09T10:17:58.637Z,715.857
2022-10-09T10:18:58.681Z,714.214
2022-10-09T10:19:58.709Z,714.214
2022-10-09T10:20:58.766Z,714.214
2022-10-09T10:21:58.769Z,716.714
2022-10-09T10:22:58.791Z,720
2022-10-09T10:23:58.867Z,720.857
2022-10-09T10:24:58.863Z,715
2022-10-09T10:25:58.904Z,709.214
2022-10-09T10:26:58.914Z,705.857
2022-10-09T10:27:58.951Z,705
2022-10-09T10:28:58.982Z,705
2022-10-09T10:29:59.012Z,710.857
2022-10-09T10:30:59.082Z,705
2022-10-09T10:31:59.073Z,710
2022-10-09T10:32:59.112Z,712.5
2022-10-09T10:33:59.132Z,710.857
2022-10-09T10:34:59.181Z,713.357
2022-10-09T10:35:59.208Z,716.714
2022-10-09T10:37:02.583Z,722.5
2022-10-09T10:37:59.265Z,720
2022-10-09T10:38:59.297Z,725
2022-10-09T10:39:59.333Z,704.214
2022-10-09T10:40:59.365Z,710.857
2022-10-09T10:41:59.401Z,720.857
2022-10-09T10:42:59.500Z,830
2022-10-09T10:43:59.469Z,741.714
2022-10-09T10:44:59.500Z,705
2022-10-09T10:45:59.535Z,687.5
2022-10-09T10:46:59.633Z,682.5
2022-10-09T10:47:59.615Z,776.714
2022-10-09T10:48:59.636Z,875.857
2022-10-09T10:49:59.671Z,860.857
2022-10-09T10:50:59.705Z,815
2022-10-09T10:51:59.745Z,916.714
2022-10-09T10:52:59.783Z,1062.5
2022-10-09T10:53:59.824Z,1245
2022-10-09T10:54:59.840Z,1294.21
2022-10-09T10:56:04.863Z,1405.86
2022-10-09T10:56:59.907Z,1225
2022-10-09T10:57:59.953Z,1149.21
2022-10-09T10:58:59.958Z,1014.21
2022-10-09T10:59:59.988Z,1081.71
2022-10-09T11:01:00.128Z,1225
2022-10-09T11:02:00.067Z,1261.71
2022-10-09T11:03:00.167Z,960
2022-10-09T11:04:00.140Z,851.714
2022-10-09T11:05:00.162Z,775.857
2022-10-09T11:06:00.189Z,769.214
2022-10-09T11:07:00.226Z,836.714
2022-10-09T11:08:00.461Z,885.857
2022-10-09T11:09:00.285Z,1029.21
2022-10-09T11:10:00.328Z,1205.86
2022-10-09T11:11:00.373Z,1043.36
2022-10-09T11:12:00.398Z,1023.36
2022-10-09T11:13:00.825Z,1096.71
2022-10-09T11:14:00.466Z,1263.36
2022-10-09T11:15:00.493Z,1305.86
2022-10-09T11:16:00.581Z,1327.5
2022-10-09T11:17:00.562Z,1565.86
2022-10-09T11:18:00.619Z,1835
2022-10-09T11:19:00.619Z,1949.21
2022-10-09T11:20:00.651Z,1814.21
2022-10-09T11:21:00.690Z,1520.86
2022-10-09T11:22:00.721Z,1276.71
2022-10-09T11:23:00.776Z,1151.71
2022-10-09T11:24:00.785Z,1030.86
2022-10-09T11:25:00.824Z,904.214
2022-10-09T11:26:00.852Z,853.357
2022-10-09T11:27:03.223Z,871.714
2022-10-09T11:28:00.921Z,873.357
2022-10-09T11:29:00.950Z,848.357
2022-10-09T11:30:00.985Z,788.357
2022-10-09T11:31:01.022Z,755.857
2022-10-09T11:32:01.094Z,749.214
2022-10-09T11:33:01.086Z,751.714
2022-10-09T11:34:01.114Z,752.5
2022-10-09T11:35:01.149Z,750
2022-10-09T11:36:01.183Z,758.357
2022-10-09T11:37:01.218Z,755.857
2022-10-09T11:38:01.251Z,748.357
2022-10-09T11:39:01.317Z,746.714
2022-10-09T11:40:01.329Z,753.357
2022-10-09T11:41:03.854Z,764.214
2022-10-09T11:42:01.392Z,774.214
2022-10-09T11:43:01.426Z,800.857
2022-10-09T11:44:01.479Z,795
2022-10-09T11:45:01.514Z,750
2022-10-09T11:46:01.569Z,780.857
2022-10-09T11:47:02.239Z,755.857
2022-10-09T11:48:01.574Z,825.857
2022-10-09T11:49:01.631Z,1067.5
2022-10-09T11:50:01.666Z,1377.5
2022-10-09T11:51:01.672Z,1856.71
2022-10-09T11:52:01.710Z,2100.86
2022-10-09T11:53:01.746Z,1825.86
2022-10-09T11:54:01.801Z,1565
2022-10-09T11:55:01.805Z,1485
2022-10-09T11:56:01.837Z,1413.36
2022-10-09T11:57:05.147Z,1406.71
2022-10-09T11:58:01.900Z,1267.5
2022-10-09T11:59:01.961Z,1166.71
2022-10-09T12:00:01.968Z,1147.5
2022-10-09T12:01:02.109Z,1072.5
2022-10-09T12:02:02.128Z,1015.86
2022-10-09T12:03:02.074Z,951.714
2022-10-09T12:04:02.132Z,950.857
2022-10-09T12:05:02.142Z,930.857
2022-10-09T12:06:02.176Z,869.214
2022-10-09T12:07:02.214Z,891.714
2022-10-09T12:08:02.250Z,1067.5
2022-10-09T12:09:02.303Z,1056.71
2022-10-09T12:10:02.312Z,989.214
2022-10-09T12:11:02.352Z,889.214
2022-10-09T12:12:02.388Z,794.214
2022-10-09T12:13:02.412Z,736.714
2022-10-09T12:14:02.445Z,673.357
2022-10-09T12:15:02.474Z,669.214
2022-10-09T12:16:02.506Z,655
2022-10-09T12:17:02.649Z,646.714
2022-10-09T12:18:02.562Z,640.857
2022-10-09T12:19:02.593Z,640.857
2022-10-09T12:20:02.646Z,682.5
2022-10-09T12:21:02.659Z,844.214
2022-10-09T12:22:02.712Z,1130
2022-10-09T12:23:25.609Z,1314.21
2022-10-09T12:24:02.760Z,1643.36
2022-10-09T12:25:02.818Z,1890
2022-10-09T12:26:02.839Z,2187.5
2022-10-09T12:27:02.861Z,2250
2022-10-09T12:28:02.963Z,2005.86
2022-10-09T12:29:02.917Z,1732.5
2022-10-09T12:30:02.972Z,1405
2022-10-09T12:31:03.001Z,1100
2022-10-09T12:32:03.006Z,877.5
2022-10-09T12:33:03.047Z,775.857
2022-10-09T12:34:03.069Z,713.357
2022-10-09T12:35:03.101Z,693.357
2022-10-09T12:36:03.134Z,687.5
2022-10-09T12:37:03.163Z,694.214
2022-10-09T12:38:03.188Z,679.214
2022-10-09T12:39:03.223Z,622.5
2022-10-09T12:40:03.282Z,605
2022-10-09T12:41:03.296Z,620.857
2022-10-09T12:42:03.332Z,597.5
2022-10-09T12:43:03.373Z,661.714
2022-10-09T12:44:03.404Z,728.357
2022-10-09T12:45:03.442Z,810
2022-10-09T12:46:03.526Z,820.857
2022-10-09T12:47:03.511Z,874.214
2022-10-09T12:48:03.547Z,1035
2022-10-09T12:49:03.591Z,1231.71
2022-10-09T12:50:03.622Z,1415.86
2022-10-09T12:51:03.650Z,1555
2022-10-09T12:52:03.692Z,1686.71
2022-10-09T12:53:03.740Z,1838.36
2022-10-09T12:54:03.757Z,1930
2022-10-09T12:55:03.786Z,1819.21
2022-10-09T12:56:03.823Z,1580.86
2022-10-09T12:57:03.877Z,1444.21
2022-10-09T12:58:03.917Z,1370.86
2022-10-09T12:59:03.928Z,1285.86
2022-10-09T13:00:03.963Z,1273.36
2022-10-09T13:01:04.142Z,1245.86
2022-10-09T13:02:04.195Z,1103.36
2022-10-09T13:03:04.083Z,920
2022-10-09T13:04:04.097Z,784.214
2022-10-09T13:05:04.126Z,737.5
2022-10-09T13:06:04.167Z,693.357
2022-10-09T13:07:04.208Z,694.214
2022-10-09T13:08:04.241Z,690.857
2022-10-09T13:09:04.276Z,682.5
2022-10-09T13:10:04.303Z,677.5
2022-10-09T13:11:04.339Z,672.5
2022-10-09T13:12:04.375Z,668.357
2022-10-09T13:13:04.485Z,655.857
2022-10-09T13:14:04.440Z,650
2022-10-09T13:15:04.470Z,647.5
2022-10-09T13:16:04.526Z,635
2022-10-09T13:17:04.600Z,631.714
2022-10-09T13:18:04.571Z,632.5
2022-10-09T13:19:04.601Z,600
2022-10-09T13:20:04.653Z,614.214
2022-10-09T13:21:04.673Z,606.714
2022-10-09T13:22:04.706Z,595.857
2022-10-09T13:23:04.746Z,588.357
2022-10-09T13:24:04.776Z,582.5
2022-10-09T13:25:04.884Z,578.357
2022-10-09T13:26:04.871Z,573.357
2022-10-09T13:27:04.887Z,567.5
2022-10-09T13:28:05.012Z,561.714
2022-10-09T13:29:04.957Z,556.714
2022-10-09T13:30:04.985Z,550.857
2022-10-09T13:31:05.060Z,545.857
2022-10-09T13:32:05.074Z,542.5
2022-10-09T13:33:05.086Z,541.714
2022-10-09T13:34:05.122Z,543.357
2022-10-09T13:35:05.142Z,548.357
2022-10-09T13:36:05.177Z,555
2022-10-09T13:37:05.211Z,562.5
2022-10-09T13:38:05.241Z,560
2022-10-09T13:39:05.276Z,580
2022-10-09T13:40:05.317Z,587.5
2022-10-09T13:41:05.355Z,590.857
2022-10-09T13:42:05.384Z,601.714
2022-10-09T13:43:05.421Z,611.714
2022-10-09T13:44:05.461Z,608.357
2022-10-09T13:45:05.521Z,604.214
2022-10-09T13:46:05.568Z,600
2022-10-09T13:47:05.570Z,599.214
2022-10-09T13:48:05.597Z,599.214
2022-10-09T13:49:05.629Z,597.5
2022-10-09T13:50:05.682Z,587.5
2022-10-09T13:51:05.701Z,587.5
2022-10-09T13:52:05.733Z,586.714
2022-10-09T13:53:05.766Z,582.5
2022-10-09T13:54:05.792Z,579.214
2022-10-09T13:55:05.821Z,576.714
2022-10-09T13:56:05.860Z,573.357
2022-10-09T13:57:05.897Z,571.714
2022-10-09T13:58:05.928Z,569.214
2022-10-09T13:59:05.962Z,590
2022-10-09T14:00:05.990Z,621.714
2022-10-09T14:01:06.045Z,601.714
2022-10-09T14:02:06.060Z,577.5
2022-10-09T14:03:06.098Z,560.857
2022-10-09T14:04:06.130Z,551.714
2022-10-09T14:05:06.190Z,546.714
2022-10-09T14:06:06.195Z,548.357
2022-10-09T14:07:06.223Z,544.214
2022-10-09T14:08:06.266Z,538.357
2022-10-09T14:09:06.326Z,534.214
2022-10-09T14:10:06.324Z,530.857
2022-10-09T14:11:06.361Z,528.357
2022-10-09T14:12:06.387Z,526.714
2022-10-09T14:13:06.430Z,525
2022-10-09T14:14:06.486Z,524.214
2022-10-09T14:15:06.518Z,522.5
2022-10-09T14:16:06.532Z,524.214
2022-10-09T14:17:06.557Z,520.857
2022-10-09T14:18:06.594Z,519.214
2022-10-09T14:19:06.644Z,514.214
2022-10-09T14:20:06.689Z,510.857
2022-10-09T14:21:08.418Z,513.357
2022-10-09T14:22:06.726Z,515.857
2022-10-09T14:23:06.764Z,517.5
2022-10-09T14:24:06.798Z,517.5
2022-10-09T14:25:06.830Z,516.714
2022-10-09T14:26:06.890Z,515.857
2022-10-09T14:27:06.906Z,515.857
2022-10-09T14:28:06.976Z,514.214
2022-10-09T14:29:06.990Z,511.714
2022-10-09T14:30:07.002Z,511.714
2022-10-09T14:31:07.031Z,511.714
2022-10-09T14:32:07.079Z,510.857
2022-10-09T14:33:07.135Z,512.5
2022-10-09T14:34:07.145Z,511.714
2022-10-09T14:35:07.177Z,510
2022-10-09T14:36:07.234Z,509.214
2022-10-09T14:37:18.506Z,506.714
2022-10-09T14:38:07.266Z,505
2022-10-09T14:39:07.307Z,502.5
2022-10-09T14:40:07.338Z,500
2022-10-09T14:41:07.364Z,498.357
2022-10-09T14:42:07.405Z,495.857
2022-10-09T14:43:07.437Z,495
2022-10-09T14:44:07.486Z,508.357
2022-10-09T14:45:07.526Z,526.714
2022-10-09T14:46:07.534Z,519.214
2022-10-09T14:47:07.580Z,503.357
2022-10-09T14:48:07.612Z,508.357
2022-10-09T14:49:07.710Z,510
2022-10-09T14:50:07.754Z,510.857
2022-10-09T14:51:07.715Z,497.5
2022-10-09T14:52:07.748Z,486.714
2022-10-09T14:53:07.775Z,480
2022-10-09T14:54:07.811Z,475
2022-10-09T14:55:07.870Z,472.5
2022-10-09T14:56:07.904Z,470
2022-10-09T14:57:07.910Z,466.714
2022-10-09T14:58:07.945Z,464.214
2022-10-09T14:59:07.986Z,460
2022-10-09T15:00:08.113Z,458.357
2022-10-09T15:01:08.074Z,455.857
2022-10-09T15:02:08.091Z,450.857
2022-10-09T15:03:08.131Z,444.214
2022-10-09T15:04:08.285Z,438.357
2022-10-09T15:05:08.222Z,436.714
2022-10-09T15:06:08.235Z,435
2022-10-09T15:07:08.274Z,434.214
2022-10-09T15:08:08.301Z,431.714
2022-10-09T15:09:08.331Z,427.5
2022-10-09T15:10:08.370Z,420.857
2022-10-09T15:11:08.398Z,412.5
2022-10-09T15:12:08.430Z,406.714
2022-10-09T15:13:08.461Z,403.357
2022-10-09T15:14:08.483Z,405
2022-10-09T15:15:08.512Z,405
2022-10-09T15:16:08.543Z,404.214
2022-10-09T15:17:08.580Z,403.357
2022-10-09T15:18:08.609Z,400
2022-10-09T15:19:08.645Z,395.857
2022-10-09T15:20:08.682Z,393.357
2022-10-09T15:21:08.716Z,390
2022-10-09T15:22:08.767Z,385.857
2022-10-09T15:23:08.777Z,381.714
2022-10-09T15:24:08.839Z,376.714
2022-10-09T15:25:08.844Z,371.714
2022-10-09T15:26:08.872Z,366.714
2022-10-09T15:27:08.906Z,361.714
2022-10-09T15:28:08.997Z,356.714
2022-10-09T15:29:09.004Z,353.357
2022-10-09T15:30:09.017Z,348.357
2022-10-09T15:31:09.048Z,343.357
2022-10-09T15:32:09.086Z,338.357
2022-10-09T15:33:09.137Z,333.357
2022-10-09T15:34:09.148Z,329.214
2022-10-09T15:35:09.183Z,325
2022-10-09T15:36:09.214Z,320.857
2022-10-09T15:37:09.257Z,315.857
2022-10-09T15:38:09.304Z,311.714
2022-10-09T15:39:09.326Z,307.5
2022-10-09T15:40:09.353Z,303.357
2022-10-09T15:41:09.386Z,299.214
2022-10-09T15:42:09.418Z,294.214
2022-10-09T15:43:09.475Z,288.357
2022-10-09T15:44:09.509Z,284.214
2022-10-09T15:45:09.530Z,279.214
2022-10-09T15:46:09.555Z,274.214
2022-10-09T15:47:09.596Z,268.357
2022-10-09T15:48:09.644Z,262.5
2022-10-09T15:49:09.657Z,257.5
2022-10-09T15:50:09.689Z,252.5
2022-10-09T15:51:09.729Z,246.714
2022-10-09T15:52:09.766Z,240.857
2022-10-09T15:53:09.821Z,235
2022-10-09T15:54:09.837Z,229.214
2022-10-09T15:55:09.871Z,223.357
2022-10-09T15:56:09.904Z,217.5
2022-10-09T15:57:09.938Z,210.857
2022-10-09T15:58:09.974Z,204.214
2022-10-09T15:59:10.006Z,198.357
2022-10-09T16:00:10.040Z,191.714
2022-10-09T16:01:10.069Z,185.857
2022-10-09T16:02:10.095Z,179.214
2022-10-09T16:03:10.154Z,174.214
2022-10-09T16:04:10.177Z,167.5
2022-10-09T16:05:10.238Z,161.714
2022-10-09T16:06:10.248Z,155.857
2022-10-09T16:07:10.277Z,150
2022-10-09T16:08:10.313Z,144.214
2022-10-09T16:09:10.353Z,138.357
2022-10-09T16:10:10.406Z,132.5
2022-10-09T16:11:10.446Z,126.714
2022-10-09T16:12:10.455Z,120
2022-10-09T16:13:10.481Z,114.214
2022-10-09T16:14:10.518Z,108.357
2022-10-09T16:15:10.566Z,102.5
2022-10-09T16:16:10.580Z,96.7143
2022-10-09T16:17:11.579Z,91.7143
2022-10-09T16:18:10.661Z,85.8571
2022-10-09T16:19:10.698Z,80.8571
2022-10-09T16:20:10.756Z,75.8571
2022-10-09T16:21:10.759Z,70.8571
2022-10-09T16:22:10.795Z,65.8571
2022-10-09T16:23:10.836Z,60.8571
2022-10-09T16:24:10.881Z,56.7143
2022-10-09T16:25:10.934Z,51.7143
2022-10-09T16:26:10.940Z,46.7143
2022-10-09T16:27:10.977Z,42.5
2022-10-09T16:28:11.034Z,38.3571
2022-10-09T16:29:11.033Z,34.2143
2022-10-09T16:30:11.081Z,30.8571
2022-10-09T16:31:11.106Z,26.7143
2022-10-09T16:32:11.163Z,24.2143
2022-10-09T16:33:12.817Z,20.8571
2022-10-09T16:34:11.203Z,18.3571
2022-10-09T16:35:11.235Z,15.8571
2022-10-09T16:36:11.262Z,14.2143
2022-10-09T16:37:11.299Z,12.5
2022-10-09T16:38:11.325Z,10
2022-10-09T16:39:11.366Z,9.21429
2022-10-09T16:40:11.401Z,7.5
2022-10-09T16:41:11.433Z,6.71429
2022-10-09T16:42:11.466Z,5
2022-10-09T16:43:11.500Z,4.21429
2022-10-09T16:44:11.536Z,3.35714
2022-10-09T16:45:11.565Z,2.5
2022-10-09T16:46:11.621Z,2.5
2022-10-09T16:47:11.633Z,1.71429
2022-10-09T16:48:11.686Z,1.71429
2022-10-09T16:49:11.723Z,0.857143
2022-10-09T16:50:11.741Z,0.857143
